Afyon Airport Afyonkarahisar TR
ICAO: LTAH
IATA: AFY
Category: Medium
Scheduled Services: No

Elevation: 3310 ft
TransAlt. 12000 ft.

Airport Communications:
APP:122.1
TWR:122.1

LTAH Zoom In..

If you have problems with the map follow the link
https://www.worldairports.se/pages/airport.php?
ICAO=LTAH

Runways:

(A) RW 13L length 12008 ft width 148 ft
---- / hdg 130

(B) RW 13R length 9843 ft width 148 ft
---- / hdg 130

(C) RW 31L length 9843 ft width 148 ft
---- / hdg 310

(D) RW 31R length 12008 ft width 148 ft
---- / hdg 310

Location; LTAH
Day. 22 / Time. 10.50 Zulu
* QNH: 1018
* Temperature: 16° c. 60.8°f.
* Wind from: 130° Speed 06 kn.
Dewpoint: 10° c.
Visibility: 7000 m.
Clouds: Broken 2100 ft.

LTAH 221050Z 13006KT 050V180 7000 BKN021 16/10 Q1018 RMK RWY13 12006KT 100V160


Wind From 130°
Speed 06 kn.

 
 
jpsmedia.com for Web Design worldairports.se 2018   terms of use